sensor_id;sensor_type;location;lat;lon;timestamp;P1;durP1;ratioP1;P2;durP2;ratioP2
50225;SDS011;36113;50.742;6.432;2023-09-19T00:00:30;6.90;;;2.00;;
50225;SDS011;36113;50.742;6.432;2023-09-19T00:02:57;2.63;;;1.80;;
50225;SDS011;36113;50.742;6.432;2023-09-19T00:05:28;3.83;;;1.58;;
50225;SDS011;36113;50.742;6.432;2023-09-19T00:07:55;2.60;;;1.70;;
50225;SDS011;36113;50.742;6.432;2023-09-19T00:10:23;3.42;;;2.00;;
50225;SDS011;36113;50.742;6.432;2023-09-19T00:12:52;7.95;;;1.92;;
50225;SDS011;36113;50.742;6.432;2023-09-19T00:15:22;8.95;;;2.00;;
50225;SDS011;36113;50.742;6.432;2023-09-19T00:17:47;9.52;;;2.53;;
50225;SDS011;36113;50.742;6.432;2023-09-19T00:20:13;9.30;;;2.10;;
50225;SDS011;36113;50.742;6.432;2023-09-19T00:22:42;9.45;;;2.10;;
50225;SDS011;36113;50.742;6.432;2023-09-19T00:25:08;5.88;;;2.15;;
50225;SDS011;36113;50.742;6.432;2023-09-19T00:27:37;11.82;;;2.10;;
50225;SDS011;36113;50.742;6.432;2023-09-19T00:30:07;5.88;;;1.55;;
50225;SDS011;36113;50.742;6.432;2023-09-19T00:32:41;8.82;;;2.05;;
50225;SDS011;36113;50.742;6.432;2023-09-19T00:35:07;4.13;;;1.52;;
50225;SDS011;36113;50.742;6.432;2023-09-19T00:37:34;5.38;;;1.73;;
50225;SDS011;36113;50.742;6.432;2023-09-19T00:39:59;8.93;;;1.50;;
50225;SDS011;36113;50.742;6.432;2023-09-19T00:42:25;6.50;;;1.77;;
50225;SDS011;36113;50.742;6.432;2023-09-19T00:44:50;6.72;;;2.08;;
50225;SDS011;36113;50.742;6.432;2023-09-19T00:47:16;9.80;;;1.77;;
50225;SDS011;36113;50.742;6.432;2023-09-19T00:49:43;7.85;;;1.77;;
50225;SDS011;36113;50.742;6.432;2023-09-19T00:52:14;5.47;;;2.13;;
50225;SDS011;36113;50.742;6.432;2023-09-19T00:54:39;3.60;;;1.42;;
50225;SDS011;36113;50.742;6.432;2023-09-19T00:57:04;2.57;;;1.60;;
50225;SDS011;36113;50.742;6.432;2023-09-19T00:59:30;5.00;;;1.50;;
50225;SDS011;36113;50.742;6.432;2023-09-19T01:01:56;3.22;;;2.00;;
50225;SDS011;36113;50.742;6.432;2023-09-19T01:04:22;9.20;;;2.13;;
50225;SDS011;36113;50.742;6.432;2023-09-19T01:06:48;6.27;;;2.27;;
50225;SDS011;36113;50.742;6.432;2023-09-19T01:09:18;9.88;;;2.35;;
50225;SDS011;36113;50.742;6.432;2023-09-19T01:11:45;7.32;;;1.88;;
50225;SDS011;36113;50.742;6.432;2023-09-19T01:14:15;5.82;;;1.77;;
50225;SDS011;36113;50.742;6.432;2023-09-19T01:17:03;6.90;;;2.17;;
50225;SDS011;36113;50.742;6.432;2023-09-19T01:22:40;9.63;;;1.55;;
50225;SDS011;36113;50.742;6.432;2023-09-19T01:31:01;3.92;;;1.73;;
50225;SDS011;36113;50.742;6.432;2023-09-19T01:33:28;7.53;;;1.88;;
50225;SDS011;36113;50.742;6.432;2023-09-19T01:35:59;8.63;;;2.03;;
50225;SDS011;36113;50.742;6.432;2023-09-19T01:38:24;9.60;;;2.25;;
50225;SDS011;36113;50.742;6.432;2023-09-19T01:40:57;6.47;;;2.07;;
50225;SDS011;36113;50.742;6.432;2023-09-19T01:43:33;5.00;;;2.08;;
50225;SDS011;36113;50.742;6.432;2023-09-19T01:51:53;11.02;;;2.15;;
50225;SDS011;36113;50.742;6.432;2023-09-19T01:54:50;6.97;;;2.13;;
50225;SDS011;36113;50.742;6.432;2023-09-19T01:57:25;8.48;;;1.92;;
50225;SDS011;36113;50.742;6.432;2023-09-19T02:00:01;6.20;;;2.15;;
50225;SDS011;36113;50.742;6.432;2023-09-19T02:02:32;9.18;;;1.90;;
50225;SDS011;36113;50.742;6.432;2023-09-19T02:04:59;7.97;;;2.15;;
50225;SDS011;36113;50.742;6.432;2023-09-19T02:07:24;3.92;;;2.25;;
50225;SDS011;36113;50.742;6.432;2023-09-19T02:09:51;12.55;;;2.22;;
50225;SDS011;36113;50.742;6.432;2023-09-19T02:12:16;4.75;;;1.77;;
50225;SDS011;36113;50.742;6.432;2023-09-19T02:14:42;14.03;;;2.27;;
50225;SDS011;36113;50.742;6.432;2023-09-19T02:17:07;9.90;;;2.17;;
50225;SDS011;36113;50.742;6.432;2023-09-19T02:19:34;8.93;;;2.38;;
50225;SDS011;36113;50.742;6.432;2023-09-19T02:22:00;8.73;;;2.22;;
50225;SDS011;36113;50.742;6.432;2023-09-19T02:24:28;8.05;;;2.05;;
50225;SDS011;36113;50.742;6.432;2023-09-19T02:26:53;8.40;;;1.92;;
50225;SDS011;36113;50.742;6.432;2023-09-19T02:29:19;5.40;;;1.93;;
50225;SDS011;36113;50.742;6.432;2023-09-19T02:31:47;7.50;;;2.20;;
50225;SDS011;36113;50.742;6.432;2023-09-19T02:34:12;8.90;;;2.60;;
50225;SDS011;36113;50.742;6.432;2023-09-19T02:36:41;10.85;;;2.20;;
50225;SDS011;36113;50.742;6.432;2023-09-19T02:39:09;5.88;;;2.15;;
50225;SDS011;36113;50.742;6.432;2023-09-19T02:44:01;9.00;;;2.17;;
50225;SDS011;36113;50.742;6.432;2023-09-19T02:46:26;7.68;;;2.22;;
50225;SDS011;36113;50.742;6.432;2023-09-19T02:48:52;9.43;;;2.33;;
50225;SDS011;36113;50.742;6.432;2023-09-19T02:51:19;7.40;;;2.20;;
50225;SDS011;36113;50.742;6.432;2023-09-19T02:53:45;4.78;;;2.50;;
50225;SDS011;36113;50.742;6.432;2023-09-19T02:56:12;8.57;;;1.98;;
50225;SDS011;36113;50.742;6.432;2023-09-19T02:58:38;6.40;;;2.20;;
50225;SDS011;36113;50.742;6.432;2023-09-19T03:01:07;7.53;;;2.28;;
50225;SDS011;36113;50.742;6.432;2023-09-19T03:03:34;10.07;;;2.42;;
50225;SDS011;36113;50.742;6.432;2023-09-19T03:05:59;5.90;;;2.15;;
50225;SDS011;36113;50.742;6.432;2023-09-19T03:08:29;6.95;;;3.15;;
50225;SDS011;36113;50.742;6.432;2023-09-19T03:10:55;6.60;;;2.33;;
50225;SDS011;36113;50.742;6.432;2023-09-19T03:13:20;9.30;;;2.97;;
50225;SDS011;36113;50.742;6.432;2023-09-19T03:15:45;7.90;;;1.87;;
50225;SDS011;36113;50.742;6.432;2023-09-19T03:18:12;7.28;;;2.15;;
50225;SDS011;36113;50.742;6.432;2023-09-19T03:20:38;11.38;;;2.05;;
50225;SDS011;36113;50.742;6.432;2023-09-19T03:23:03;13.47;;;2.63;;
50225;SDS011;36113;50.742;6.432;2023-09-19T03:25:31;8.52;;;1.98;;
50225;SDS011;36113;50.742;6.432;2023-09-19T03:27:56;11.07;;;2.55;;
50225;SDS011;36113;50.742;6.432;2023-09-19T03:30:23;6.45;;;2.50;;
50225;SDS011;36113;50.742;6.432;2023-09-19T03:32:48;6.07;;;1.90;;
50225;SDS011;36113;50.742;6.432;2023-09-19T03:35:15;9.05;;;2.17;;
50225;SDS011;36113;50.742;6.432;2023-09-19T03:37:41;12.38;;;2.20;;
50225;SDS011;36113;50.742;6.432;2023-09-19T03:40:08;9.47;;;2.20;;
50225;SDS011;36113;50.742;6.432;2023-09-19T03:42:37;10.90;;;2.65;;
50225;SDS011;36113;50.742;6.432;2023-09-19T03:45:03;7.00;;;2.80;;
50225;SDS011;36113;50.742;6.432;2023-09-19T03:47:29;12.73;;;2.20;;
50225;SDS011;36113;50.742;6.432;2023-09-19T03:49:54;2.15;;;1.63;;
50225;SDS011;36113;50.742;6.432;2023-09-19T03:52:19;4.27;;;1.93;;
50225;SDS011;36113;50.742;6.432;2023-09-19T03:54:45;6.47;;;2.37;;
50225;SDS011;36113;50.742;6.432;2023-09-19T03:57:10;14.43;;;2.67;;
50225;SDS011;36113;50.742;6.432;2023-09-19T03:59:37;7.03;;;1.90;;
50225;SDS011;36113;50.742;6.432;2023-09-19T04:02:03;10.15;;;2.13;;
50225;SDS011;36113;50.742;6.432;2023-09-19T04:04:29;9.55;;;2.70;;
50225;SDS011;36113;50.742;6.432;2023-09-19T04:06:54;14.50;;;2.05;;
50225;SDS011;36113;50.742;6.432;2023-09-19T04:09:20;8.38;;;2.80;;
50225;SDS011;36113;50.742;6.432;2023-09-19T04:11:45;6.18;;;2.15;;
50225;SDS011;36113;50.742;6.432;2023-09-19T04:14:10;13.83;;;2.53;;
50225;SDS011;36113;50.742;6.432;2023-09-19T04:16:36;11.18;;;2.03;;
50225;SDS011;36113;50.742;6.432;2023-09-19T04:19:01;13.20;;;2.03;;
50225;SDS011;36113;50.742;6.432;2023-09-19T04:21:28;11.70;;;2.55;;
50225;SDS011;36113;50.742;6.432;2023-09-19T04:23:54;15.55;;;2.53;;
50225;SDS011;36113;50.742;6.432;2023-09-19T04:26:19;8.93;;;2.40;;
50225;SDS011;36113;50.742;6.432;2023-09-19T04:28:44;6.45;;;1.90;;
50225;SDS011;36113;50.742;6.432;2023-09-19T04:31:11;10.13;;;2.57;;
50225;SDS011;36113;50.742;6.432;2023-09-19T04:33:36;6.67;;;2.27;;
50225;SDS011;36113;50.742;6.432;2023-09-19T04:36:02;9.38;;;1.95;;
50225;SDS011;36113;50.742;6.432;2023-09-19T04:38:30;10.73;;;2.33;;
50225;SDS011;36113;50.742;6.432;2023-09-19T04:40:58;11.00;;;2.35;;
50225;SDS011;36113;50.742;6.432;2023-09-19T04:43:24;6.75;;;2.38;;
50225;SDS011;36113;50.742;6.432;2023-09-19T04:45:50;8.27;;;2.33;;
50225;SDS011;36113;50.742;6.432;2023-09-19T04:48:16;10.77;;;2.20;;
50225;SDS011;36113;50.742;6.432;2023-09-19T04:50:41;6.53;;;1.90;;
50225;SDS011;36113;50.742;6.432;2023-09-19T04:53:06;13.25;;;2.30;;
50225;SDS011;36113;50.742;6.432;2023-09-19T04:55:32;10.70;;;2.85;;
50225;SDS011;36113;50.742;6.432;2023-09-19T04:57:57;11.73;;;2.63;;
50225;SDS011;36113;50.742;6.432;2023-09-19T05:00:23;8.75;;;2.47;;
50225;SDS011;36113;50.742;6.432;2023-09-19T05:02:49;6.75;;;2.33;;
50225;SDS011;36113;50.742;6.432;2023-09-19T05:05:16;6.38;;;2.20;;
50225;SDS011;36113;50.742;6.432;2023-09-19T05:07:44;9.88;;;2.50;;
50225;SDS011;36113;50.742;6.432;2023-09-19T05:10:10;8.65;;;2.30;;
50225;SDS011;36113;50.742;6.432;2023-09-19T05:12:36;7.45;;;2.25;;
50225;SDS011;36113;50.742;6.432;2023-09-19T05:15:02;9.15;;;2.58;;
50225;SDS011;36113;50.742;6.432;2023-09-19T05:17:28;11.67;;;2.27;;
50225;SDS011;36113;50.742;6.432;2023-09-19T05:19:54;7.60;;;2.33;;
50225;SDS011;36113;50.742;6.432;2023-09-19T05:22:19;5.40;;;2.00;;
50225;SDS011;36113;50.742;6.432;2023-09-19T05:24:45;11.27;;;2.10;;
50225;SDS011;36113;50.742;6.432;2023-09-19T05:27:13;7.63;;;2.17;;
50225;SDS011;36113;50.742;6.432;2023-09-19T05:29:42;6.60;;;1.95;;
50225;SDS011;36113;50.742;6.432;2023-09-19T05:32:09;5.43;;;2.03;;
50225;SDS011;36113;50.742;6.432;2023-09-19T05:34:35;6.57;;;2.40;;
50225;SDS011;36113;50.742;6.432;2023-09-19T05:37:01;5.63;;;2.10;;
50225;SDS011;36113;50.742;6.432;2023-09-19T05:39:27;11.18;;;2.10;;
50225;SDS011;36113;50.742;6.432;2023-09-19T05:41:52;9.65;;;2.90;;
50225;SDS011;36113;50.742;6.432;2023-09-19T05:44:17;7.10;;;2.00;;
50225;SDS011;36113;50.742;6.432;2023-09-19T05:46:42;8.53;;;2.30;;
50225;SDS011;36113;50.742;6.432;2023-09-19T05:49:08;10.82;;;2.30;;
50225;SDS011;36113;50.742;6.432;2023-09-19T05:51:33;10.30;;;1.90;;
50225;SDS011;36113;50.742;6.432;2023-09-19T05:53:58;11.20;;;2.58;;
50225;SDS011;36113;50.742;6.432;2023-09-19T05:56:24;10.50;;;2.58;;
50225;SDS011;36113;50.742;6.432;2023-09-19T05:58:49;6.97;;;2.15;;
50225;SDS011;36113;50.742;6.432;2023-09-19T06:01:16;8.57;;;2.55;;
50225;SDS011;36113;50.742;6.432;2023-09-19T06:03:43;9.27;;;2.37;;
50225;SDS011;36113;50.742;6.432;2023-09-19T06:06:08;10.85;;;2.30;;
50225;SDS011;36113;50.742;6.432;2023-09-19T06:08:34;10.60;;;2.85;;
50225;SDS011;36113;50.742;6.432;2023-09-19T06:10:59;6.70;;;1.85;;
50225;SDS011;36113;50.742;6.432;2023-09-19T06:13:25;8.13;;;1.95;;
50225;SDS011;36113;50.742;6.432;2023-09-19T06:15:54;10.77;;;2.55;;
50225;SDS011;36113;50.742;6.432;2023-09-19T06:18:21;7.40;;;2.47;;
50225;SDS011;36113;50.742;6.432;2023-09-19T06:20:47;6.28;;;2.03;;
50225;SDS011;36113;50.742;6.432;2023-09-19T06:23:12;9.38;;;2.95;;
50225;SDS011;36113;50.742;6.432;2023-09-19T06:25:38;7.23;;;2.10;;
50225;SDS011;36113;50.742;6.432;2023-09-19T06:28:04;7.23;;;2.30;;
50225;SDS011;36113;50.742;6.432;2023-09-19T06:30:32;7.45;;;2.47;;
50225;SDS011;36113;50.742;6.432;2023-09-19T06:32:59;7.80;;;2.08;;
50225;SDS011;36113;50.742;6.432;2023-09-19T06:35:25;15.23;;;2.23;;
50225;SDS011;36113;50.742;6.432;2023-09-19T06:37:52;6.07;;;2.25;;
50225;SDS011;36113;50.742;6.432;2023-09-19T06:40:18;13.93;;;2.75;;
50225;SDS011;36113;50.742;6.432;2023-09-19T06:42:44;12.02;;;2.78;;
50225;SDS011;36113;50.742;6.432;2023-09-19T06:45:15;7.57;;;2.40;;
50225;SDS011;36113;50.742;6.432;2023-09-19T06:47:47;7.40;;;2.00;;
50225;SDS011;36113;50.742;6.432;2023-09-19T06:50:16;8.15;;;2.05;;
50225;SDS011;36113;50.742;6.432;2023-09-19T06:52:47;9.13;;;2.00;;
50225;SDS011;36113;50.742;6.432;2023-09-19T06:55:16;13.95;;;2.47;;
50225;SDS011;36113;50.742;6.432;2023-09-19T06:57:42;14.47;;;3.00;;
50225;SDS011;36113;50.742;6.432;2023-09-19T07:00:09;4.95;;;1.80;;
50225;SDS011;36113;50.742;6.432;2023-09-19T07:02:43;8.65;;;2.28;;
50225;SDS011;36113;50.742;6.432;2023-09-19T07:05:08;14.63;;;2.67;;
50225;SDS011;36113;50.742;6.432;2023-09-19T07:07:34;8.13;;;1.90;;
50225;SDS011;36113;50.742;6.432;2023-09-19T07:10:00;18.70;;;2.63;;
50225;SDS011;36113;50.742;6.432;2023-09-19T07:12:26;11.13;;;3.15;;
50225;SDS011;36113;50.742;6.432;2023-09-19T07:14:51;5.13;;;2.63;;
50225;SDS011;36113;50.742;6.432;2023-09-19T07:17:17;8.52;;;2.38;;
50225;SDS011;36113;50.742;6.432;2023-09-19T07:22:09;6.82;;;2.00;;
50225;SDS011;36113;50.742;6.432;2023-09-19T07:24:34;7.30;;;2.08;;
50225;SDS011;36113;50.742;6.432;2023-09-19T07:27:01;5.68;;;2.42;;
50225;SDS011;36113;50.742;6.432;2023-09-19T07:29:27;10.85;;;3.40;;
50225;SDS011;36113;50.742;6.432;2023-09-19T07:31:53;7.80;;;2.07;;
50225;SDS011;36113;50.742;6.432;2023-09-19T07:34:18;8.00;;;2.03;;
50225;SDS011;36113;50.742;6.432;2023-09-19T07:36:45;7.25;;;2.63;;
50225;SDS011;36113;50.742;6.432;2023-09-19T07:39:12;8.02;;;2.13;;
50225;SDS011;36113;50.742;6.432;2023-09-19T07:41:37;7.63;;;2.07;;
50225;SDS011;36113;50.742;6.432;2023-09-19T07:44:03;10.37;;;1.93;;
50225;SDS011;36113;50.742;6.432;2023-09-19T07:46:28;6.57;;;2.00;;
50225;SDS011;36113;50.742;6.432;2023-09-19T07:48:56;8.68;;;2.38;;
50225;SDS011;36113;50.742;6.432;2023-09-19T07:51:22;11.68;;;2.45;;
50225;SDS011;36113;50.742;6.432;2023-09-19T07:53:47;5.77;;;1.87;;
50225;SDS011;36113;50.742;6.432;2023-09-19T07:56:13;7.47;;;1.77;;
50225;SDS011;36113;50.742;6.432;2023-09-19T07:58:39;5.57;;;2.13;;
50225;SDS011;36113;50.742;6.432;2023-09-19T08:01:06;7.55;;;2.10;;
50225;SDS011;36113;50.742;6.432;2023-09-19T08:03:32;13.55;;;2.55;;
50225;SDS011;36113;50.742;6.432;2023-09-19T08:08:25;7.75;;;2.28;;
50225;SDS011;36113;50.742;6.432;2023-09-19T08:10:54;6.03;;;2.10;;
50225;SDS011;36113;50.742;6.432;2023-09-19T08:13:23;8.82;;;1.95;;
50225;SDS011;36113;50.742;6.432;2023-09-19T08:15:49;9.38;;;2.78;;
50225;SDS011;36113;50.742;6.432;2023-09-19T08:18:18;8.35;;;2.28;;
50225;SDS011;36113;50.742;6.432;2023-09-19T08:20:52;5.43;;;1.83;;
50225;SDS011;36113;50.742;6.432;2023-09-19T08:23:18;8.48;;;2.10;;
50225;SDS011;36113;50.742;6.432;2023-09-19T08:28:10;4.63;;;2.10;;
50225;SDS011;36113;50.742;6.432;2023-09-19T08:30:37;7.75;;;1.60;;
50225;SDS011;36113;50.742;6.432;2023-09-19T08:33:05;7.65;;;3.75;;
50225;SDS011;36113;50.742;6.432;2023-09-19T08:35:31;7.70;;;2.67;;
50225;SDS011;36113;50.742;6.432;2023-09-19T08:37:57;4.13;;;1.87;;
50225;SDS011;36113;50.742;6.432;2023-09-19T08:40:22;2.73;;;1.50;;
50225;SDS011;36113;50.742;6.432;2023-09-19T08:42:51;3.87;;;1.83;;
50225;SDS011;36113;50.742;6.432;2023-09-19T08:45:19;4.55;;;1.50;;
50225;SDS011;36113;50.742;6.432;2023-09-19T08:48:31;8.27;;;1.98;;
50225;SDS011;36113;50.742;6.432;2023-09-19T08:50:49;4.82;;;1.80;;
50225;SDS011;36113;50.742;6.432;2023-09-19T08:53:21;3.72;;;1.55;;
50225;SDS011;36113;50.742;6.432;2023-09-19T08:55:52;4.15;;;1.85;;
50225;SDS011;36113;50.742;6.432;2023-09-19T08:58:21;4.97;;;1.90;;
50225;SDS011;36113;50.742;6.432;2023-09-19T09:00:52;5.13;;;1.63;;
50225;SDS011;36113;50.742;6.432;2023-09-19T09:03:20;2.58;;;1.67;;
50225;SDS011;36113;50.742;6.432;2023-09-19T09:05:46;9.18;;;1.75;;
50225;SDS011;36113;50.742;6.432;2023-09-19T09:08:13;7.35;;;2.13;;
50225;SDS011;36113;50.742;6.432;2023-09-19T09:10:39;6.17;;;1.70;;
50225;SDS011;36113;50.742;6.432;2023-09-19T09:13:05;10.10;;;2.38;;
50225;SDS011;36113;50.742;6.432;2023-09-19T09:15:31;11.13;;;1.73;;
50225;SDS011;36113;50.742;6.432;2023-09-19T09:18:00;4.18;;;1.83;;
50225;SDS011;36113;50.742;6.432;2023-09-19T09:20:28;4.43;;;1.80;;
50225;SDS011;36113;50.742;6.432;2023-09-19T09:22:54;3.70;;;2.03;;
50225;SDS011;36113;50.742;6.432;2023-09-19T09:25:20;2.67;;;1.42;;
50225;SDS011;36113;50.742;6.432;2023-09-19T09:28:01;2.75;;;1.63;;
50225;SDS011;36113;50.742;6.432;2023-09-19T09:30:32;3.63;;;1.40;;
50225;SDS011;36113;50.742;6.432;2023-09-19T09:33:11;3.25;;;1.88;;
50225;SDS011;36113;50.742;6.432;2023-09-19T09:35:47;2.85;;;1.50;;
50225;SDS011;36113;50.742;6.432;2023-09-19T09:38:22;4.05;;;1.48;;
50225;SDS011;36113;50.742;6.432;2023-09-19T09:40:57;5.43;;;1.88;;
50225;SDS011;36113;50.742;6.432;2023-09-19T09:48:56;5.68;;;1.70;;
50225;SDS011;36113;50.742;6.432;2023-09-19T09:51:45;5.22;;;1.92;;
50225;SDS011;36113;50.742;6.432;2023-09-19T09:54:22;2.58;;;1.45;;
50225;SDS011;36113;50.742;6.432;2023-09-19T09:56:58;5.22;;;1.83;;
50225;SDS011;36113;50.742;6.432;2023-09-19T09:59:44;7.20;;;2.35;;
50225;SDS011;36113;50.742;6.432;2023-09-19T10:02:19;3.85;;;1.77;;
50225;SDS011;36113;50.742;6.432;2023-09-19T10:04:50;5.78;;;1.88;;
50225;SDS011;36113;50.742;6.432;2023-09-19T10:07:27;6.13;;;2.30;;
50225;SDS011;36113;50.742;6.432;2023-09-19T10:09:58;6.05;;;1.63;;
50225;SDS011;36113;50.742;6.432;2023-09-19T10:12:36;2.33;;;1.85;;
50225;SDS011;36113;50.742;6.432;2023-09-19T10:15:07;5.70;;;2.20;;
50225;SDS011;36113;50.742;6.432;2023-09-19T10:17:36;4.50;;;1.67;;
50225;SDS011;36113;50.742;6.432;2023-09-19T10:20:01;4.60;;;2.03;;
50225;SDS011;36113;50.742;6.432;2023-09-19T10:22:34;3.00;;;1.50;;
50225;SDS011;36113;50.742;6.432;2023-09-19T10:25:02;4.78;;;1.90;;
50225;SDS011;36113;50.742;6.432;2023-09-19T10:27:30;3.42;;;1.98;;
50225;SDS011;36113;50.742;6.432;2023-09-19T10:30:02;4.80;;;1.58;;
50225;SDS011;36113;50.742;6.432;2023-09-19T10:32:32;3.55;;;1.67;;
50225;SDS011;36113;50.742;6.432;2023-09-19T10:34:59;7.63;;;2.13;;
50225;SDS011;36113;50.742;6.432;2023-09-19T10:37:26;8.10;;;1.80;;
50225;SDS011;36113;50.742;6.432;2023-09-19T10:39:55;4.28;;;1.58;;
50225;SDS011;36113;50.742;6.432;2023-09-19T10:42:21;4.43;;;1.60;;
50225;SDS011;36113;50.742;6.432;2023-09-19T10:44:52;4.68;;;1.50;;
50225;SDS011;36113;50.742;6.432;2023-09-19T10:47:19;5.72;;;1.70;;
50225;SDS011;36113;50.742;6.432;2023-09-19T10:52:14;3.55;;;1.88;;
50225;SDS011;36113;50.742;6.432;2023-09-19T10:54:45;5.15;;;1.88;;
50225;SDS011;36113;50.742;6.432;2023-09-19T10:57:22;8.02;;;1.80;;
50225;SDS011;36113;50.742;6.432;2023-09-19T11:00:02;8.20;;;1.80;;
50225;SDS011;36113;50.742;6.432;2023-09-19T11:08:31;3.40;;;1.58;;
50225;SDS011;36113;50.742;6.432;2023-09-19T11:11:40;5.43;;;2.03;;
50225;SDS011;36113;50.742;6.432;2023-09-19T11:30:41;4.43;;;1.65;;
50225;SDS011;36113;50.742;6.432;2023-09-19T11:39:02;4.50;;;1.77;;
50225;SDS011;36113;50.742;6.432;2023-09-19T11:46:25;9.23;;;1.80;;
50225;SDS011;36113;50.742;6.432;2023-09-19T11:48:51;7.57;;;2.55;;
50225;SDS011;36113;50.742;6.432;2023-09-19T11:51:20;3.30;;;1.43;;
50225;SDS011;36113;50.742;6.432;2023-09-19T11:53:49;6.35;;;1.73;;
50225;SDS011;36113;50.742;6.432;2023-09-19T11:56:16;4.18;;;1.63;;
50225;SDS011;36113;50.742;6.432;2023-09-19T11:58:46;4.25;;;1.45;;
50225;SDS011;36113;50.742;6.432;2023-09-19T12:01:14;6.50;;;2.08;;
50225;SDS011;36113;50.742;6.432;2023-09-19T12:03:46;3.42;;;1.48;;
50225;SDS011;36113;50.742;6.432;2023-09-19T12:06:15;3.75;;;1.55;;
50225;SDS011;36113;50.742;6.432;2023-09-19T12:08:42;3.40;;;1.50;;
50225;SDS011;36113;50.742;6.432;2023-09-19T12:11:11;2.20;;;1.50;;
50225;SDS011;36113;50.742;6.432;2023-09-19T12:13:45;4.43;;;1.50;;
50225;SDS011;36113;50.742;6.432;2023-09-19T12:16:13;3.20;;;1.30;;
50225;SDS011;36113;50.742;6.432;2023-09-19T12:18:43;5.70;;;1.45;;
50225;SDS011;36113;50.742;6.432;2023-09-19T12:24:15;1.85;;;1.40;;
50225;SDS011;36113;50.742;6.432;2023-09-19T12:26:44;2.78;;;1.10;;
50225;SDS011;36113;50.742;6.432;2023-09-19T12:29:18;2.13;;;1.45;;
50225;SDS011;36113;50.742;6.432;2023-09-19T12:31:49;2.92;;;1.20;;
50225;SDS011;36113;50.742;6.432;2023-09-19T12:34:22;3.85;;;1.23;;
50225;SDS011;36113;50.742;6.432;2023-09-19T12:37:13;4.18;;;1.50;;
50225;SDS011;36113;50.742;6.432;2023-09-19T12:39:45;2.28;;;1.17;;
50225;SDS011;36113;50.742;6.432;2023-09-19T12:42:14;1.40;;;0.90;;
50225;SDS011;36113;50.742;6.432;2023-09-19T12:44:41;5.25;;;1.27;;
50225;SDS011;36113;50.742;6.432;2023-09-19T12:47:09;3.17;;;1.27;;
50225;SDS011;36113;50.742;6.432;2023-09-19T12:52:52;2.80;;;1.10;;
50225;SDS011;36113;50.742;6.432;2023-09-19T12:55:22;4.60;;;1.15;;
50225;SDS011;36113;50.742;6.432;2023-09-19T12:58:21;2.53;;;0.93;;
50225;SDS011;36113;50.742;6.432;2023-09-19T13:00:41;3.00;;;0.98;;
50225;SDS011;36113;50.742;6.432;2023-09-19T13:06:01;4.55;;;1.20;;
50225;SDS011;36113;50.742;6.432;2023-09-19T13:08:38;1.55;;;1.00;;
50225;SDS011;36113;50.742;6.432;2023-09-19T13:13:38;4.32;;;1.20;;
50225;SDS011;36113;50.742;6.432;2023-09-19T13:16:03;1.83;;;0.98;;
50225;SDS011;36113;50.742;6.432;2023-09-19T13:18:45;3.65;;;1.48;;
50225;SDS011;36113;50.742;6.432;2023-09-19T13:21:14;2.40;;;0.88;;
50225;SDS011;36113;50.742;6.432;2023-09-19T13:23:52;1.70;;;0.70;;
50225;SDS011;36113;50.742;6.432;2023-09-19T13:26:21;2.80;;;1.10;;
50225;SDS011;36113;50.742;6.432;2023-09-19T13:28:47;2.30;;;0.90;;
50225;SDS011;36113;50.742;6.432;2023-09-19T13:33:43;2.30;;;1.00;;
50225;SDS011;36113;50.742;6.432;2023-09-19T13:36:10;4.00;;;1.48;;
50225;SDS011;36113;50.742;6.432;2023-09-19T13:38:36;2.38;;;1.17;;
50225;SDS011;36113;50.742;6.432;2023-09-19T13:41:02;1.80;;;1.00;;
50225;SDS011;36113;50.742;6.432;2023-09-19T13:43:27;1.97;;;1.07;;
50225;SDS011;36113;50.742;6.432;2023-09-19T13:45:54;3.85;;;0.95;;
50225;SDS011;36113;50.742;6.432;2023-09-19T13:48:19;2.10;;;1.10;;
50225;SDS011;36113;50.742;6.432;2023-09-19T13:50:47;3.13;;;1.00;;
50225;SDS011;36113;50.742;6.432;2023-09-19T13:53:12;4.93;;;0.80;;
50225;SDS011;36113;50.742;6.432;2023-09-19T13:55:38;3.60;;;1.00;;
50225;SDS011;36113;50.742;6.432;2023-09-19T13:58:03;1.87;;;0.93;;
50225;SDS011;36113;50.742;6.432;2023-09-19T14:00:31;3.72;;;1.10;;
50225;SDS011;36113;50.742;6.432;2023-09-19T14:02:59;3.05;;;0.90;;
50225;SDS011;36113;50.742;6.432;2023-09-19T14:07:52;3.22;;;1.13;;
50225;SDS011;36113;50.742;6.432;2023-09-19T14:12:45;1.85;;;0.75;;
50225;SDS011;36113;50.742;6.432;2023-09-19T14:15:11;3.30;;;1.00;;
50225;SDS011;36113;50.742;6.432;2023-09-19T14:17:37;2.80;;;0.90;;
50225;SDS011;36113;50.742;6.432;2023-09-19T14:22:30;0.95;;;0.80;;
50225;SDS011;36113;50.742;6.432;2023-09-19T14:24:56;3.05;;;1.08;;
50225;SDS011;36113;50.742;6.432;2023-09-19T14:27:22;2.93;;;0.87;;
50225;SDS011;36113;50.742;6.432;2023-09-19T14:29:47;1.57;;;0.80;;
50225;SDS011;36113;50.742;6.432;2023-09-19T14:32:12;3.13;;;1.20;;
50225;SDS011;36113;50.742;6.432;2023-09-19T14:34:38;2.10;;;0.83;;
50225;SDS011;36113;50.742;6.432;2023-09-19T14:37:07;4.97;;;1.02;;
50225;SDS011;36113;50.742;6.432;2023-09-19T14:39:33;4.20;;;0.82;;
50225;SDS011;36113;50.742;6.432;2023-09-19T14:41:58;3.70;;;1.13;;
50225;SDS011;36113;50.742;6.432;2023-09-19T14:44:23;2.40;;;1.00;;
50225;SDS011;36113;50.742;6.432;2023-09-19T14:46:48;3.80;;;0.87;;
50225;SDS011;36113;50.742;6.432;2023-09-19T14:49:14;5.03;;;1.23;;
50225;SDS011;36113;50.742;6.432;2023-09-19T14:51:41;3.58;;;1.10;;
50225;SDS011;36113;50.742;6.432;2023-09-19T14:54:09;1.77;;;0.70;;
50225;SDS011;36113;50.742;6.432;2023-09-19T14:56:34;3.70;;;1.10;;
50225;SDS011;36113;50.742;6.432;2023-09-19T14:58:59;3.67;;;1.07;;
50225;SDS011;36113;50.742;6.432;2023-09-19T15:01:25;2.20;;;0.67;;
50225;SDS011;36113;50.742;6.432;2023-09-19T15:03:50;2.10;;;0.67;;
50225;SDS011;36113;50.742;6.432;2023-09-19T15:06:16;3.67;;;1.07;;
50225;SDS011;36113;50.742;6.432;2023-09-19T15:08:45;1.30;;;1.02;;
50225;SDS011;36113;50.742;6.432;2023-09-19T15:11:15;1.83;;;1.00;;
50225;SDS011;36113;50.742;6.432;2023-09-19T15:16:08;3.58;;;1.02;;
50225;SDS011;36113;50.742;6.432;2023-09-19T15:18:34;2.37;;;1.23;;
50225;SDS011;36113;50.742;6.432;2023-09-19T15:21:03;11.90;;;1.33;;
50225;SDS011;36113;50.742;6.432;2023-09-19T15:25:59;1.90;;;0.82;;
50225;SDS011;36113;50.742;6.432;2023-09-19T15:28:26;1.20;;;0.80;;
50225;SDS011;36113;50.742;6.432;2023-09-19T15:31:02;3.65;;;0.93;;
50225;SDS011;36113;50.742;6.432;2023-09-19T15:33:32;6.15;;;1.10;;
50225;SDS011;36113;50.742;6.432;2023-09-19T15:41:22;1.73;;;0.95;;
50225;SDS011;36113;50.742;6.432;2023-09-19T15:43:47;4.63;;;0.93;;
50225;SDS011;36113;50.742;6.432;2023-09-19T15:46:12;6.73;;;1.10;;
50225;SDS011;36113;50.742;6.432;2023-09-19T15:48:40;4.18;;;1.60;;
50225;SDS011;36113;50.742;6.432;2023-09-19T15:51:05;3.00;;;1.23;;
50225;SDS011;36113;50.742;6.432;2023-09-19T15:53:52;1.07;;;1.00;;
50225;SDS011;36113;50.742;6.432;2023-09-19T15:56:18;4.30;;;1.10;;
50225;SDS011;36113;50.742;6.432;2023-09-19T15:58:46;4.20;;;1.13;;
50225;SDS011;36113;50.742;6.432;2023-09-19T16:01:13;1.25;;;1.10;;
50225;SDS011;36113;50.742;6.432;2023-09-19T16:03:42;2.70;;;1.00;;
50225;SDS011;36113;50.742;6.432;2023-09-19T16:06:09;7.15;;;0.90;;
50225;SDS011;36113;50.742;6.432;2023-09-19T16:08:45;4.57;;;1.05;;
50225;SDS011;36113;50.742;6.432;2023-09-19T16:11:14;1.05;;;0.80;;
50225;SDS011;36113;50.742;6.432;2023-09-19T16:16:09;1.83;;;0.93;;
50225;SDS011;36113;50.742;6.432;2023-09-19T16:18:37;3.63;;;0.90;;
50225;SDS011;36113;50.742;6.432;2023-09-19T16:21:05;2.55;;;0.93;;
50225;SDS011;36113;50.742;6.432;2023-09-19T16:23:34;1.83;;;0.90;;
50225;SDS011;36113;50.742;6.432;2023-09-19T16:26:09;4.23;;;1.17;;
50225;SDS011;36113;50.742;6.432;2023-09-19T16:28:37;2.70;;;0.77;;
50225;SDS011;36113;50.742;6.432;2023-09-19T16:31:03;2.67;;;1.17;;